createdAt,value
2022-09-12T00:00:08.710Z,91.48
2022-09-12T00:01:08.751Z,91.58
2022-09-12T00:02:08.750Z,91.73
2022-09-12T00:03:08.697Z,91.73
2022-09-12T00:04:08.666Z,91.63
2022-09-12T00:05:08.655Z,91.93
2022-09-12T00:06:08.639Z,91.78
2022-09-12T00:07:08.646Z,91.63
2022-09-12T00:08:08.639Z,91.83
2022-09-12T00:09:08.614Z,91.83
2022-09-12T00:10:08.601Z,91.83
2022-09-12T00:11:08.624Z,91.78
2022-09-12T00:12:08.608Z,92.13
2022-09-12T00:13:08.596Z,91.93
2022-09-12T00:14:08.555Z,91.83
2022-09-12T00:15:08.540Z,92.24
2022-09-12T00:16:08.566Z,92.03
2022-09-12T00:17:08.544Z,92.13
2022-09-12T00:18:08.507Z,92.03
2022-09-12T00:19:08.515Z,92.13
2022-09-12T00:20:08.487Z,91.93
2022-09-12T00:21:08.476Z,91.83
2022-09-12T00:22:08.465Z,91.93
2022-09-12T00:23:08.469Z,91.63
2022-09-12T00:24:08.441Z,91.87
2022-09-12T00:25:08.442Z,91.83
2022-09-12T00:26:08.419Z,92.13
2022-09-12T00:27:08.415Z,91.93
2022-09-12T00:28:08.407Z,91.83
2022-09-12T00:29:08.392Z,91.63
2022-09-12T00:30:08.374Z,92.03
2022-09-12T00:31:08.369Z,92.24
2022-09-12T00:32:08.354Z,91.52
2022-09-12T00:33:08.346Z,91.63
2022-09-12T00:34:08.335Z,91.63
2022-09-12T00:35:08.332Z,91.77
2022-09-12T00:36:08.307Z,91.67
2022-09-12T00:37:08.291Z,91.67
2022-09-12T00:38:08.314Z,91.87
2022-09-12T00:39:08.278Z,91.26
2022-09-12T00:40:08.305Z,91.16
2022-09-12T00:41:08.246Z,91.26
2022-09-12T00:42:08.239Z,91.47
2022-09-12T00:43:08.237Z,91.47
2022-09-12T00:44:08.218Z,91.87
2022-09-12T00:45:08.220Z,91.77
2022-09-12T00:46:08.218Z,91.77
2022-09-12T00:47:08.177Z,91.77
2022-09-12T00:48:08.208Z,91.87
2022-09-12T00:49:08.158Z,91.87
2022-09-12T00:50:08.149Z,91.77
2022-09-12T00:51:08.152Z,91.67
2022-09-12T00:52:08.142Z,91.56
2022-09-12T00:53:08.117Z,91.71
2022-09-12T00:54:08.113Z,91.77
2022-09-12T00:55:08.095Z,91.71
2022-09-12T00:56:08.086Z,91.71
2022-09-12T00:57:08.064Z,91.91
2022-09-12T00:58:08.076Z,91.82
2022-09-12T00:59:08.058Z,91.77
2022-09-12T01:00:08.038Z,92.22
2022-09-12T01:01:08.121Z,91.82
2022-09-12T01:02:08.119Z,91.82
2022-09-12T01:03:08.003Z,91.77
2022-09-12T01:04:07.997Z,92.12
2022-09-12T01:05:07.997Z,92.02
2022-09-12T01:06:07.968Z,92.32
2022-09-12T01:07:07.979Z,91.77
2022-09-12T01:08:07.956Z,92.22
2022-09-12T01:09:07.935Z,91.97
2022-09-12T01:10:07.951Z,92.18
2022-09-12T01:11:07.912Z,92.68
2022-09-12T01:12:07.905Z,92.48
2022-09-12T01:13:07.890Z,92.99
2022-09-12T01:14:07.897Z,93.03
2022-09-12T01:15:07.926Z,93.13
2022-09-12T01:16:07.955Z,93.03
2022-09-12T01:17:07.847Z,93.09
2022-09-12T01:18:07.840Z,92.99
2022-09-12T01:19:07.828Z,92.63
2022-09-12T01:20:07.811Z,92.83
2022-09-12T01:21:07.815Z,92.83
2022-09-12T01:22:07.802Z,92.83
2022-09-12T01:23:07.798Z,93.03
2022-09-12T01:24:07.771Z,92.77
2022-09-12T01:25:07.762Z,92.72
2022-09-12T01:26:07.748Z,92.72
2022-09-12T01:27:07.743Z,93.13
2022-09-12T01:28:07.744Z,93.03
2022-09-12T01:29:07.713Z,92.87
2022-09-12T01:30:07.718Z,92.77
2022-09-12T01:31:07.700Z,92.87
2022-09-12T01:32:07.748Z,93.07
2022-09-12T01:33:07.670Z,92.67
2022-09-12T01:34:07.665Z,92.87
2022-09-12T01:35:07.677Z,93.07
2022-09-12T01:36:07.638Z,93.28
2022-09-12T01:37:07.641Z,93.07
2022-09-12T01:38:07.618Z,92.67
2022-09-12T01:39:07.617Z,92.87
2022-09-12T01:40:07.625Z,92.26
2022-09-12T01:41:07.592Z,91.86
2022-09-12T01:42:07.585Z,92.16
2022-09-12T01:43:07.558Z,92.16
2022-09-12T01:44:15.633Z,91.90
2022-09-12T01:45:07.534Z,92.26
2022-09-12T01:46:07.589Z,92.57
2022-09-12T01:47:07.543Z,92.57
2022-09-12T01:48:07.520Z,93.07
2022-09-12T01:49:07.488Z,93.07
2022-09-12T01:50:07.479Z,93.22
2022-09-12T01:51:07.488Z,92.21
2022-09-12T01:52:07.473Z,92.41
2022-09-12T01:53:07.443Z,92.30
2022-09-12T01:54:07.446Z,92.41
2022-09-12T01:55:09.730Z,92.41
2022-09-12T01:56:07.420Z,91.90
2022-09-12T01:57:07.404Z,92.41
2022-09-12T01:58:07.406Z,92.14
2022-09-12T01:59:07.393Z,92.21
2022-09-12T02:00:07.377Z,92.21
2022-09-12T02:01:07.452Z,92.30
2022-09-12T02:02:07.390Z,92.51
2022-09-12T02:03:07.364Z,92.61
2022-09-12T02:04:07.329Z,93.12
2022-09-12T02:05:07.312Z,92.82
2022-09-12T02:06:07.312Z,92.82
2022-09-12T02:07:07.303Z,93.12
2022-09-12T02:08:07.287Z,93.02
2022-09-12T02:09:07.277Z,92.91
2022-09-12T02:10:07.301Z,92.61
2022-09-12T02:11:07.278Z,93.12
2022-09-12T02:12:07.252Z,93.43
2022-09-12T02:13:07.250Z,93.12
2022-09-12T02:14:07.216Z,93.12
2022-09-12T02:15:07.202Z,93.12
2022-09-12T02:16:07.266Z,92.71
2022-09-12T02:17:07.203Z,92.21
2022-09-12T02:18:07.173Z,92.71
2022-09-12T02:19:07.162Z,92.10
2022-09-12T02:20:07.158Z,92.51
2022-09-12T02:21:07.144Z,92.35
2022-09-12T02:22:07.127Z,92.14
2022-09-12T02:23:07.131Z,92.35
2022-09-12T02:24:07.107Z,92.04
2022-09-12T02:25:07.091Z,91.94
2022-09-12T02:26:07.094Z,92.25
2022-09-12T02:27:07.105Z,92.45
2022-09-12T02:28:07.061Z,92.35
2022-09-12T02:29:07.049Z,92.76
2022-09-12T02:30:07.044Z,93.16
2022-09-12T02:31:07.058Z,93.16
2022-09-12T02:32:07.050Z,93.16
2022-09-12T02:33:07.007Z,93.16
2022-09-12T02:34:07.005Z,92.65
2022-09-12T02:35:06.984Z,92.55
2022-09-12T02:36:06.981Z,93.16
2022-09-12T02:37:07.000Z,93.06
2022-09-12T02:38:06.950Z,92.76
2022-09-12T02:39:06.948Z,92.70
2022-09-12T02:40:06.994Z,92.76
2022-09-12T02:41:06.916Z,92.55
2022-09-12T02:42:06.917Z,92.09
2022-09-12T02:43:06.912Z,91.99
2022-09-12T02:44:06.900Z,91.88
2022-09-12T02:45:06.885Z,91.88
2022-09-12T02:46:06.885Z,92.09
2022-09-12T02:47:06.869Z,92.09
2022-09-12T02:48:06.871Z,92.09
2022-09-12T02:49:08.860Z,92.19
2022-09-12T02:50:06.820Z,92.09
2022-09-12T02:51:06.825Z,92.29
2022-09-12T02:52:06.801Z,92.49
2022-09-12T02:53:06.781Z,92.19
2022-09-12T02:54:06.790Z,92.90
2022-09-12T02:55:06.759Z,92.70
2022-09-12T02:56:06.756Z,93.21
2022-09-12T02:57:06.756Z,93.21
2022-09-12T02:58:06.725Z,92.40
2022-09-12T02:59:06.734Z,92.44
2022-09-12T03:00:06.722Z,92.29
2022-09-12T03:01:06.748Z,92.84
2022-09-12T03:02:06.700Z,92.74
2022-09-12T03:03:06.673Z,92.80
2022-09-12T03:04:06.667Z,92.80
2022-09-12T03:05:06.657Z,92.74
2022-09-12T03:06:06.650Z,91.93
2022-09-12T03:07:06.649Z,92.13
2022-09-12T03:08:06.614Z,92.23
2022-09-12T03:09:06.614Z,91.83
2022-09-12T03:10:06.596Z,92.23
2022-09-12T03:11:06.582Z,92.44
2022-09-12T03:12:06.590Z,92.33
2022-09-12T03:13:06.561Z,92.74
2022-09-12T03:14:06.568Z,93.15
2022-09-12T03:15:06.560Z,93.25
2022-09-12T03:16:06.575Z,93.05
2022-09-12T03:17:06.516Z,93.15
2022-09-12T03:18:06.503Z,92.84
2022-09-12T03:19:06.506Z,93.25
2022-09-12T03:20:06.492Z,92.94
2022-09-12T03:21:06.475Z,93.05
2022-09-12T03:22:06.472Z,93.05
2022-09-12T03:23:06.455Z,93.05
2022-09-12T03:24:06.436Z,93.25
2022-09-12T03:25:06.439Z,92.94
2022-09-12T03:26:06.420Z,93.25
2022-09-12T03:27:06.429Z,93.05
2022-09-12T03:28:06.393Z,92.23
2022-09-12T03:29:06.383Z,92.68
2022-09-12T03:30:06.394Z,92.23
2022-09-12T03:31:06.437Z,92.13
2022-09-12T03:32:06.359Z,92.44
2022-09-12T03:33:06.338Z,92.64
2022-09-12T03:34:06.327Z,92.33
2022-09-12T03:35:06.328Z,92.44
2022-09-12T03:36:06.326Z,92.99
2022-09-12T03:37:06.302Z,92.89
2022-09-12T03:38:06.283Z,92.94
2022-09-12T03:39:06.275Z,93.15
2022-09-12T03:40:06.315Z,93.66
2022-09-12T03:41:06.261Z,92.94
2022-09-12T03:42:06.239Z,93.45
2022-09-12T03:43:06.245Z,93.15
2022-09-12T03:44:06.215Z,93.35
2022-09-12T03:45:06.221Z,93.29
2022-09-12T03:46:06.242Z,93.15
2022-09-12T03:47:11.006Z,92.84
2022-09-12T03:48:07.201Z,92.99
2022-09-12T03:49:06.171Z,93.19
2022-09-12T03:50:06.150Z,93.09
2022-09-12T03:51:06.270Z,92.99
2022-09-12T03:52:06.132Z,92.99
2022-09-12T03:53:06.123Z,93.66
2022-09-12T03:54:06.107Z,93.76
2022-09-12T03:55:06.106Z,93.40
2022-09-12T03:56:06.091Z,93.25
2022-09-12T03:57:06.114Z,93.09
2022-09-12T03:58:06.065Z,93.09
2022-09-12T03:59:06.064Z,92.99
2022-09-12T04:00:06.041Z,93.19
2022-09-12T04:01:06.076Z,93.19
2022-09-12T04:02:06.058Z,92.99
2022-09-12T04:03:06.036Z,93.29
2022-09-12T04:04:05.993Z,93.86
2022-09-12T04:05:05.990Z,93.55
2022-09-12T04:06:05.985Z,93.66
2022-09-12T04:07:05.958Z,93.60
2022-09-12T04:08:05.957Z,93.45
2022-09-12T04:09:05.947Z,93.40
2022-09-12T04:10:05.925Z,93.50
2022-09-12T04:11:05.946Z,93.25
2022-09-12T04:12:05.908Z,93.55
2022-09-12T04:13:05.896Z,93.45
2022-09-12T04:14:05.893Z,93.50
2022-09-12T04:15:05.900Z,93.50
2022-09-12T04:16:05.863Z,93.19
2022-09-12T04:17:05.852Z,93.25
2022-09-12T04:18:06.285Z,93.90
2022-09-12T04:19:05.846Z,93.09
2022-09-12T04:20:05.815Z,93.29
2022-09-12T04:21:05.810Z,93.29
2022-09-12T04:22:05.791Z,93.19
2022-09-12T04:23:05.822Z,93.25
2022-09-12T04:24:05.768Z,93.60
2022-09-12T04:25:05.770Z,93.90
2022-09-12T04:26:05.744Z,93.29
2022-09-12T04:27:07.832Z,93.29
2022-09-12T04:28:05.749Z,93.29
2022-09-12T04:29:05.741Z,93.70
2022-09-12T04:30:05.701Z,93.70
2022-09-12T04:31:05.735Z,93.60
2022-09-12T04:32:05.679Z,93.70
2022-09-12T04:33:08.106Z,93.70
2022-09-12T04:34:05.700Z,93.50
2022-09-12T04:35:05.668Z,93.64
2022-09-12T04:36:05.643Z,93.60
2022-09-12T04:37:05.632Z,93.29
2022-09-12T04:38:05.614Z,93.60
2022-09-12T04:39:05.618Z,93.19
2022-09-12T04:40:05.671Z,93.64
2022-09-12T04:41:05.579Z,93.13
2022-09-12T04:42:05.568Z,93.74
2022-09-12T04:43:05.559Z,93.85
2022-09-12T04:44:05.587Z,93.74
2022-09-12T04:45:05.549Z,93.95
2022-09-12T04:46:05.607Z,93.40
2022-09-12T04:47:05.520Z,93.85
2022-09-12T04:48:05.501Z,93.74
2022-09-12T04:49:05.494Z,94.46
2022-09-12T04:50:05.495Z,94.26
2022-09-12T04:51:05.492Z,94.42
2022-09-12T04:52:05.465Z,94.92
2022-09-12T04:53:05.451Z,95.03
2022-09-12T04:54:05.448Z,94.72
2022-09-12T04:55:05.429Z,95.13
2022-09-12T04:56:05.450Z,94.87
2022-09-12T04:57:05.408Z,95.23
2022-09-12T04:58:05.398Z,94.62
2022-09-12T04:59:05.385Z,94.76
2022-09-12T05:00:07.201Z,94.26
2022-09-12T05:01:05.413Z,95.33
2022-09-12T05:02:05.411Z,94.42
2022-09-12T05:03:05.336Z,94.92
2022-09-12T05:04:05.357Z,95.03
2022-09-12T05:05:05.327Z,95.23
2022-09-12T05:06:05.303Z,95.23
2022-09-12T05:07:05.330Z,95.33
2022-09-12T05:08:05.276Z,95.74
2022-09-12T05:09:05.276Z,95.23
2022-09-12T05:10:05.259Z,95.39
2022-09-12T05:11:05.274Z,95.59
2022-09-12T05:12:05.865Z,95.59
2022-09-12T05:13:05.225Z,95.49
2022-09-12T05:14:05.211Z,95.79
2022-09-12T05:15:05.205Z,95.79
2022-09-12T05:16:05.191Z,96.00
2022-09-12T05:17:05.254Z,95.79
2022-09-12T05:18:05.165Z,95.59
2022-09-12T05:19:05.192Z,95.90
2022-09-12T05:20:05.143Z,95.59
2022-09-12T05:21:05.153Z,95.53
2022-09-12T05:22:05.141Z,95.53
2022-09-12T05:23:05.140Z,95.49
2022-09-12T05:24:05.099Z,95.43
2022-09-12T05:25:05.095Z,95.39
2022-09-12T05:26:05.081Z,95.59
2022-09-12T05:27:05.096Z,95.59
2022-09-12T05:28:05.055Z,95.39
2022-09-12T05:29:05.049Z,95.39
2022-09-12T05:30:05.032Z,95.49
2022-09-12T05:31:05.123Z,95.49
2022-09-12T05:32:05.014Z,95.59
2022-09-12T05:33:05.122Z,96.20
2022-09-12T05:34:04.999Z,96.46
2022-09-12T05:35:05.012Z,96.46
2022-09-12T05:36:04.968Z,96.15
2022-09-12T05:37:04.958Z,97.07
2022-09-12T05:38:04.946Z,96.56
2022-09-12T05:39:04.964Z,97.07
2022-09-12T05:40:05.110Z,97.17
2022-09-12T05:41:04.913Z,97.17
2022-09-12T05:42:04.901Z,97.17
2022-09-12T05:43:04.905Z,96.56
2022-09-12T05:44:04.902Z,96.56
2022-09-12T05:45:04.875Z,96.97
2022-09-12T05:46:05.009Z,96.67
2022-09-12T05:47:04.849Z,97.17
2022-09-12T05:48:04.845Z,96.67
2022-09-12T05:49:04.831Z,96.87
2022-09-12T05:50:04.814Z,96.92
2022-09-12T05:51:04.809Z,96.83
2022-09-12T05:52:04.792Z,96.77
2022-09-12T05:53:04.792Z,96.92
2022-09-12T05:54:04.775Z,96.92
2022-09-12T05:55:04.785Z,96.62
2022-09-12T05:56:04.759Z,97.13
2022-09-12T05:57:04.749Z,96.83
2022-09-12T05:58:04.741Z,96.47
2022-09-12T05:59:04.719Z,96.68
2022-09-12T06:00:04.755Z,96.88
2022-09-12T06:01:04.738Z,96.58
2022-09-12T06:02:04.740Z,96.78
2022-09-12T06:03:04.681Z,96.63
2022-09-12T06:04:04.672Z,97.04
2022-09-12T06:05:04.647Z,96.53
2022-09-12T06:06:04.646Z,96.53
2022-09-12T06:07:04.628Z,96.63
2022-09-12T06:08:04.616Z,96.18
2022-09-12T06:09:04.616Z,96.18
2022-09-12T06:10:04.595Z,96.23
2022-09-12T06:11:04.607Z,95.38
2022-09-12T06:12:04.575Z,95.28
2022-09-12T06:13:04.558Z,94.22
2022-09-12T06:14:04.586Z,93.41
2022-09-12T06:15:04.552Z,93.26
2022-09-12T06:16:04.523Z,92.76
2022-09-12T06:17:04.574Z,92.96
2022-09-12T06:18:04.507Z,91.50
2022-09-12T06:19:04.505Z,91.74
2022-09-12T06:20:04.491Z,91.70
2022-09-12T06:21:04.471Z,91.80
2022-09-12T06:22:04.451Z,91.80
2022-09-12T06:23:04.462Z,91.50
2022-09-12T06:24:04.446Z,91.35
2022-09-12T06:25:04.446Z,91.15
2022-09-12T06:26:04.414Z,90.99
2022-09-12T06:27:04.425Z,91.30
2022-09-12T06:28:04.390Z,90.69
2022-09-12T06:29:04.382Z,91.13
2022-09-12T06:30:04.382Z,91.64
2022-09-12T06:31:04.445Z,91.94
2022-09-12T06:32:04.358Z,91.85
2022-09-12T06:33:04.339Z,91.94
2022-09-12T06:34:04.323Z,91.94
2022-09-12T06:35:04.337Z,92.05
2022-09-12T06:36:06.893Z,91.85
2022-09-12T06:37:04.294Z,91.64
2022-09-12T06:38:04.274Z,91.80
2022-09-12T06:39:04.272Z,91.50
2022-09-12T06:40:04.331Z,91.70
2022-09-12T06:41:04.256Z,91.60
2022-09-12T06:42:04.273Z,91.70
2022-09-12T06:43:04.242Z,91.70
2022-09-12T06:44:04.212Z,91.50
2022-09-12T06:45:04.203Z,91.80
2022-09-12T06:46:04.273Z,92.00
2022-09-12T06:47:04.192Z,91.80
2022-09-12T06:48:04.164Z,91.70
2022-09-12T06:49:04.160Z,91.70
2022-09-12T06:50:04.141Z,91.80
2022-09-12T06:51:04.176Z,92.61
2022-09-12T06:52:04.135Z,92.41
2022-09-12T06:53:04.108Z,92.31
2022-09-12T06:54:04.097Z,93.06
2022-09-12T06:55:04.088Z,93.06
2022-09-12T06:56:04.075Z,92.35
2022-09-12T06:57:04.087Z,93.26
2022-09-12T06:58:04.052Z,93.26
2022-09-12T06:59:04.065Z,93.26
2022-09-12T07:00:04.031Z,93.06
2022-09-12T07:01:04.096Z,93.37
2022-09-12T07:02:04.074Z,93.57
2022-09-12T07:03:04.001Z,93.57
2022-09-12T07:04:04.013Z,93.73
2022-09-12T07:05:03.980Z,93.52
2022-09-12T07:06:03.977Z,93.73
2022-09-12T07:07:03.967Z,93.62
2022-09-12T07:08:03.942Z,93.73
2022-09-12T07:09:03.941Z,93.83
2022-09-12T07:10:03.923Z,93.42
2022-09-12T07:11:03.912Z,93.62
2022-09-12T07:12:03.944Z,93.73
2022-09-12T07:13:03.891Z,93.52
2022-09-12T07:14:03.879Z,94.09
2022-09-12T07:15:03.891Z,93.99
2022-09-12T07:16:03.849Z,93.52
2022-09-12T07:17:03.866Z,93.68
2022-09-12T07:18:03.840Z,93.27
2022-09-12T07:19:03.840Z,94.19
2022-09-12T07:20:03.802Z,94.09
2022-09-12T07:21:03.795Z,93.62
2022-09-12T07:22:03.828Z,93.52
2022-09-12T07:23:03.781Z,92.97
2022-09-12T07:24:03.768Z,93.99
2022-09-12T07:25:03.748Z,93.68
2022-09-12T07:26:03.743Z,93.62
2022-09-12T07:27:03.748Z,93.83
2022-09-12T07:28:03.738Z,93.42
2022-09-12T07:29:32.185Z,93.68
2022-09-12T07:30:04.698Z,93.99
2022-09-12T07:31:03.721Z,93.68
2022-09-12T07:32:03.679Z,94.14
2022-09-12T07:33:03.678Z,94.75
2022-09-12T07:34:03.652Z,94.49
2022-09-12T07:35:03.637Z,94.49
2022-09-12T07:36:03.648Z,94.29
2022-09-12T07:37:03.619Z,94.29
2022-09-12T07:38:03.618Z,94.04
2022-09-12T07:39:03.608Z,94.04
2022-09-12T07:40:03.639Z,93.94
2022-09-12T07:41:03.571Z,93.58
2022-09-12T07:42:03.562Z,93.48
2022-09-12T07:43:03.551Z,94.09
2022-09-12T07:44:10.631Z,93.58
2022-09-12T07:45:03.525Z,93.58
2022-09-12T07:46:03.540Z,93.99
2022-09-12T07:47:04.222Z,94.24
2022-09-12T07:48:03.496Z,94.29
2022-09-12T07:49:03.487Z,94.14
2022-09-12T07:50:03.484Z,94.45
2022-09-12T07:51:03.484Z,94.14
2022-09-12T07:52:03.455Z,94.70
2022-09-12T07:53:03.440Z,94.70
2022-09-12T07:54:03.448Z,94.29
2022-09-12T07:55:03.459Z,94.24
2022-09-12T07:56:03.417Z,94.14
2022-09-12T07:57:03.396Z,94.35
2022-09-12T07:58:03.389Z,94.00
2022-09-12T07:59:03.412Z,94.04
2022-09-12T08:00:03.362Z,94.20
2022-09-12T08:01:03.454Z,94.40
2022-09-12T08:02:03.353Z,94.20
2022-09-12T08:03:03.346Z,94.30
2022-09-12T08:04:03.328Z,94.20
2022-09-12T08:05:03.306Z,93.85
2022-09-12T08:06:03.311Z,93.44
2022-09-12T08:07:03.284Z,93.65
2022-09-12T08:08:03.276Z,93.75
2022-09-12T08:09:03.272Z,93.51
2022-09-12T08:10:03.259Z,93.71
2022-09-12T08:11:03.266Z,93.51
2022-09-12T08:12:03.230Z,93.10
2022-09-12T08:13:03.224Z,92.80
2022-09-12T08:14:03.236Z,92.96
2022-09-12T08:15:03.198Z,92.85
2022-09-12T08:16:03.241Z,92.55
2022-09-12T08:17:03.180Z,92.35
2022-09-12T08:18:03.173Z,92.05
2022-09-12T08:19:03.176Z,92.35
2022-09-12T08:20:03.160Z,92.55
2022-09-12T08:21:03.128Z,92.50
2022-09-12T08:22:03.120Z,91.90
2022-09-12T08:23:03.102Z,91.39
2022-09-12T08:24:03.096Z,91.09
2022-09-12T08:25:03.094Z,91.24
2022-09-12T08:26:05.965Z,91.39
2022-09-12T08:27:03.067Z,91.39
2022-09-12T08:28:03.058Z,91.24
2022-09-12T08:29:03.048Z,91.39
2022-09-12T08:30:03.029Z,91.50
2022-09-12T08:31:03.094Z,91.50
2022-09-12T08:32:03.014Z,91.46
2022-09-12T08:33:02.990Z,91.55
2022-09-12T08:34:02.991Z,91.46
2022-09-12T08:35:02.986Z,90.85
2022-09-12T08:36:02.963Z,90.65
2022-09-12T08:37:02.954Z,90.65
2022-09-12T08:38:02.950Z,90.50
2022-09-12T08:39:02.923Z,91.05
2022-09-12T08:40:02.969Z,89.59
2022-09-12T08:41:02.913Z,90.00
2022-09-12T08:42:03.068Z,89.59
2022-09-12T08:43:02.881Z,89.70
2022-09-12T08:44:02.874Z,90.10
2022-09-12T08:45:02.863Z,90.06
2022-09-12T08:46:02.859Z,89.50
2022-09-12T08:47:02.856Z,89.39
2022-09-12T08:48:02.826Z,89.39
2022-09-12T08:49:02.812Z,88.95
2022-09-12T08:50:02.802Z,89.05
2022-09-12T08:51:02.816Z,88.75
2022-09-12T08:52:02.923Z,89.11
2022-09-12T08:53:02.764Z,89.15
2022-09-12T08:54:02.755Z,89.31
2022-09-12T08:55:02.740Z,88.75
2022-09-12T08:56:02.734Z,88.81
2022-09-12T08:57:02.719Z,88.20
2022-09-12T08:58:02.732Z,88.10
2022-09-12T08:59:02.700Z,87.80
2022-09-12T09:00:02.692Z,88.06
2022-09-12T09:01:02.675Z,87.96
2022-09-12T09:02:02.675Z,87.96
2022-09-12T09:03:02.700Z,87.51
2022-09-12T09:04:02.648Z,87.21
2022-09-12T09:05:02.633Z,87.21
2022-09-12T09:06:02.628Z,87.01
2022-09-12T09:07:02.639Z,87.11
2022-09-12T09:08:02.599Z,86.66
2022-09-12T09:09:02.623Z,86.02
2022-09-12T09:10:02.583Z,85.52
2022-09-12T09:11:02.567Z,85.38
2022-09-12T09:12:02.559Z,85.48
2022-09-12T09:13:02.549Z,84.77
2022-09-12T09:14:05.152Z,84.67
2022-09-12T09:15:02.531Z,83.97
2022-09-12T09:16:02.572Z,84.37
2022-09-12T09:17:02.501Z,84.88
2022-09-12T09:18:02.503Z,84.88
2022-09-12T09:19:02.484Z,84.97
2022-09-12T09:20:02.480Z,85.08
2022-09-12T09:21:02.458Z,85.38
2022-09-12T09:22:02.442Z,85.52
2022-09-12T09:23:02.486Z,85.42
2022-09-12T09:24:02.425Z,85.42
2022-09-12T09:25:02.412Z,85.22
2022-09-12T09:26:02.407Z,84.81
2022-09-12T09:27:02.384Z,84.97
2022-09-12T09:28:02.384Z,85.11
2022-09-12T09:29:02.400Z,85.28
2022-09-12T09:30:02.361Z,85.58
2022-09-12T09:31:02.439Z,84.77
2022-09-12T09:32:02.350Z,83.87
2022-09-12T09:33:02.328Z,84.17
2022-09-12T09:34:02.316Z,84.17
2022-09-12T09:35:02.310Z,84.67
2022-09-12T09:36:02.288Z,84.63
2022-09-12T09:37:02.280Z,84.13
2022-09-12T09:38:02.294Z,83.59
2022-09-12T09:39:02.297Z,83.39
2022-09-12T09:40:02.294Z,83.15
2022-09-12T09:41:02.237Z,82.70
2022-09-12T09:42:02.228Z,82.00
2022-09-12T09:43:02.212Z,80.86
2022-09-12T09:44:02.281Z,79.55
2022-09-12T09:45:02.211Z,80.02
2022-09-12T09:46:02.251Z,80.42
2022-09-12T09:47:02.172Z,79.98
2022-09-12T09:48:02.158Z,79.38
2022-09-12T09:49:02.164Z,77.87
2022-09-12T09:50:02.165Z,78.28
2022-09-12T09:51:02.129Z,78.18
2022-09-12T09:52:02.113Z,77.87
2022-09-12T09:53:02.102Z,77.87
2022-09-12T09:54:02.091Z,77.58
2022-09-12T09:55:02.113Z,77.28
2022-09-12T09:56:02.070Z,77.28
2022-09-12T09:57:02.064Z,76.98
2022-09-12T09:58:02.046Z,77.58
2022-09-12T09:59:02.034Z,77.67
2022-09-12T10:00:02.045Z,77.84
2022-09-12T10:01:02.092Z,77.14
2022-09-12T10:02:02.097Z,75.43
2022-09-12T10:03:01.993Z,74.60
2022-09-12T10:04:01.984Z,73.30
2022-09-12T10:05:01.977Z,72.80
2022-09-12T10:06:01.966Z,72.86
2022-09-12T10:07:01.946Z,73.03
2022-09-12T10:08:01.953Z,72.53
2022-09-12T10:09:01.933Z,72.29
2022-09-12T10:10:01.912Z,71.59
2022-09-12T10:11:01.953Z,71.16
2022-09-12T10:12:01.901Z,70.46
2022-09-12T10:13:01.877Z,70.26
2022-09-12T10:14:01.879Z,70.12
2022-09-12T10:15:01.864Z,70.03
2022-09-12T10:16:01.983Z,71.12
2022-09-12T10:17:01.837Z,67.72
2022-09-12T10:18:01.827Z,68.29
2022-09-12T10:19:01.821Z,69.79
2022-09-12T10:20:20.464Z,68.89
2022-09-12T10:21:02.817Z,69.59
2022-09-12T10:22:01.779Z,68.70
2022-09-12T10:23:01.770Z,68.70
2022-09-12T10:24:01.764Z,68.86
2022-09-12T10:25:01.768Z,70.46
2022-09-12T10:26:01.746Z,67.76
2022-09-12T10:27:01.751Z,67.66
2022-09-12T10:28:01.714Z,67.46
2022-09-12T10:29:01.703Z,69.06
2022-09-12T10:30:01.697Z,68.16
2022-09-12T10:31:01.735Z,67.07
2022-09-12T10:32:01.674Z,67.16
2022-09-12T10:33:01.661Z,68.56
2022-09-12T10:34:01.652Z,67.66
2022-09-12T10:35:01.644Z,67.83
2022-09-12T10:36:01.633Z,67.43
2022-09-12T10:37:01.626Z,68.23
2022-09-12T10:38:01.603Z,67.90
2022-09-12T10:39:01.638Z,67.70
2022-09-12T10:40:01.658Z,68.00
2022-09-12T10:41:01.576Z,68.30
2022-09-12T10:42:01.586Z,68.40
2022-09-12T10:43:01.696Z,66.67
2022-09-12T10:44:01.574Z,67.30
2022-09-12T10:45:01.520Z,67.36
2022-09-12T10:46:01.589Z,67.07
2022-09-12T10:47:01.514Z,67.57
2022-09-12T10:48:06.787Z,66.94
2022-09-12T10:49:01.505Z,66.53
2022-09-12T10:50:01.487Z,65.94
2022-09-12T10:51:01.455Z,66.94
2022-09-12T10:52:01.465Z,65.34
2022-09-12T10:53:01.436Z,65.74
2022-09-12T10:54:01.423Z,64.07
2022-09-12T10:55:01.435Z,65.67
2022-09-12T10:56:01.402Z,65.37
2022-09-12T10:57:01.397Z,64.75
2022-09-12T10:58:01.395Z,66.07
2022-09-12T10:59:01.395Z,66.24
2022-09-12T11:00:01.363Z,65.34
2022-09-12T11:01:01.400Z,65.24
2022-09-12T11:02:01.476Z,65.84
2022-09-12T11:03:01.324Z,65.14
2022-09-12T11:04:01.316Z,65.51
2022-09-12T11:05:01.310Z,65.71
2022-09-12T11:06:01.292Z,64.01
2022-09-12T11:07:01.304Z,63.82
2022-09-12T11:08:01.284Z,63.52
2022-09-12T11:09:01.256Z,63.62
2022-09-12T11:10:01.250Z,63.35
2022-09-12T11:11:01.241Z,63.82
2022-09-12T11:12:01.238Z,64.22
2022-09-12T11:13:01.230Z,64.01
2022-09-12T11:14:01.206Z,64.22
2022-09-12T11:15:01.212Z,63.72
2022-09-12T11:16:01.340Z,63.42
2022-09-12T11:17:01.170Z,63.52
2022-09-12T11:18:01.172Z,63.98
2022-09-12T11:19:01.162Z,63.49
2022-09-12T11:20:01.135Z,63.09
2022-09-12T11:21:01.125Z,63.69
2022-09-12T11:22:01.117Z,63.19
2022-09-12T11:23:01.115Z,63.69
2022-09-12T11:24:01.095Z,64.18
2022-09-12T11:25:01.089Z,63.29
2022-09-12T11:26:01.072Z,63.09
2022-09-12T11:27:01.057Z,63.49
2022-09-12T11:28:01.063Z,63.62
2022-09-12T11:29:01.047Z,63.69
2022-09-12T11:30:01.031Z,63.49
2022-09-12T11:31:01.195Z,63.69
2022-09-12T11:32:01.013Z,63.49
2022-09-12T11:33:01.003Z,63.49
2022-09-12T11:34:00.986Z,61.60
2022-09-12T11:35:00.969Z,62.69
2022-09-12T11:36:00.956Z,63.59
2022-09-12T11:37:00.968Z,63.09
2022-09-12T11:38:00.952Z,62.99
2022-09-12T11:39:00.941Z,63.89
2022-09-12T11:40:00.974Z,62.19
2022-09-12T11:41:00.910Z,61.80
2022-09-12T11:42:00.907Z,62.10
2022-09-12T11:43:00.900Z,61.80
2022-09-12T11:44:00.889Z,62.99
2022-09-12T11:45:00.864Z,63.32
2022-09-12T11:46:00.897Z,62.89
2022-09-12T11:47:00.864Z,62.89
2022-09-12T11:48:00.836Z,62.10
2022-09-12T11:49:00.843Z,63.29
2022-09-12T11:50:00.805Z,63.19
2022-09-12T11:51:00.797Z,63.09
2022-09-12T11:52:00.783Z,63.09
2022-09-12T11:53:00.775Z,61.77
2022-09-12T11:54:00.773Z,63.06
2022-09-12T11:55:00.756Z,62.07
2022-09-12T11:56:00.757Z,62.07
2022-09-12T11:57:00.732Z,61.27
2022-09-12T11:58:00.719Z,61.27
2022-09-12T11:59:00.722Z,60.87
2022-09-12T12:00:00.697Z,60.38
2022-09-12T12:01:00.688Z,60.77
2022-09-12T12:02:00.715Z,61.07
2022-09-12T12:03:00.700Z,61.17
2022-09-12T12:04:00.766Z,61.87
2022-09-12T12:05:00.645Z,61.87
2022-09-12T12:06:00.635Z,61.47
2022-09-12T12:07:00.627Z,61.07
2022-09-12T12:08:00.615Z,61.17
2022-09-12T12:09:00.634Z,60.68
2022-09-12T12:10:00.592Z,61.54
2022-09-12T12:11:00.582Z,60.64
2022-09-12T12:12:00.587Z,60.38
2022-09-12T12:13:00.580Z,61.94
2022-09-12T12:14:00.555Z,61.34
2022-09-12T12:15:00.552Z,61.83
2022-09-12T12:16:00.567Z,60.94
2022-09-12T12:17:00.517Z,60.84
2022-09-12T12:18:00.515Z,60.55
2022-09-12T12:19:00.515Z,60.97
2022-09-12T12:20:04.966Z,61.47
2022-09-12T12:21:01.472Z,60.27
2022-09-12T12:22:00.456Z,59.48
2022-09-12T12:23:00.464Z,60.08
2022-09-12T12:24:00.438Z,59.98
2022-09-12T12:25:00.441Z,59.98
2022-09-12T12:26:00.415Z,58.98
2022-09-12T12:27:00.407Z,59.01
2022-09-12T12:28:00.391Z,60.11
2022-09-12T12:29:00.409Z,60.40
2022-09-12T12:30:00.383Z,62.10
2022-09-12T12:31:00.409Z,61.40
2022-09-12T12:32:00.357Z,60.60
2022-09-12T12:33:00.351Z,61.20
2022-09-12T12:34:00.327Z,60.80
2022-09-12T12:35:00.357Z,61.00
2022-09-12T12:36:00.307Z,61.20
2022-09-12T12:37:04.314Z,61.20
2022-09-12T12:38:01.282Z,61.20
2022-09-12T12:39:00.272Z,61.77
2022-09-12T12:40:00.385Z,60.80
2022-09-12T12:41:00.267Z,61.77
2022-09-12T12:42:00.239Z,61.80
2022-09-12T12:43:00.233Z,62.10
2022-09-12T12:44:00.221Z,60.53
2022-09-12T12:45:00.229Z,61.72
2022-09-12T12:46:00.247Z,60.73
2022-09-12T12:47:00.209Z,60.93
2022-09-12T12:48:00.175Z,61.36
2022-09-12T12:49:00.190Z,62.13
2022-09-12T12:50:00.152Z,62.05
2022-09-12T12:51:00.177Z,60.43
2022-09-12T12:52:00.138Z,60.73